createdAt,value
2022-10-04T00:09:42.432Z,12
2022-10-04T00:19:45.891Z,8
2022-10-04T00:29:53.572Z,8
2022-10-04T00:39:59.727Z,10
2022-10-04T00:50:06.217Z,12
2022-10-04T01:00:11.985Z,17
2022-10-04T01:10:18.019Z,12
2022-10-04T01:20:23.224Z,11
2022-10-04T01:30:28.333Z,8
2022-10-04T01:40:35.277Z,9
2022-10-04T01:50:46.657Z,10
2022-10-04T02:00:48.224Z,21
2022-10-04T02:10:54.084Z,20
2022-10-04T02:20:59.869Z,14
2022-10-04T02:31:05.456Z,14
2022-10-04T02:41:10.873Z,10
2022-10-04T02:51:16.369Z,12
2022-10-04T03:01:23.622Z,9
2022-10-04T03:11:29.178Z,8
2022-10-04T03:21:34.619Z,10
2022-10-04T03:31:41.300Z,9
2022-10-04T03:41:47.082Z,10
2022-10-04T03:51:52.339Z,7
2022-10-04T04:01:58.188Z,9
2022-10-04T04:12:04.002Z,14
2022-10-04T04:22:08.224Z,10
2022-10-04T04:32:14.876Z,8
2022-10-04T04:42:26.618Z,10
2022-10-04T04:52:28.747Z,10
2022-10-04T05:02:35.916Z,16
2022-10-04T05:12:39.849Z,14
2022-10-04T05:22:45.114Z,10
2022-10-04T05:32:51.769Z,18
2022-10-04T05:42:56.739Z,9
2022-10-04T05:53:02.429Z,11
2022-10-04T06:03:06.861Z,6
2022-10-04T06:13:15.244Z,7
2022-10-04T06:23:19.056Z,10
2022-10-04T06:33:24.062Z,13
2022-10-04T06:43:28.435Z,7
2022-10-04T06:53:32.966Z,6
2022-10-04T07:03:35.771Z,7
2022-10-04T07:13:41.677Z,8
2022-10-04T07:23:48.878Z,8
2022-10-04T07:33:54.602Z,7
2022-10-04T07:44:00.077Z,6
2022-10-04T07:54:06.830Z,4
2022-10-04T08:04:12.420Z,7
2022-10-04T08:14:17.991Z,6
2022-10-04T08:24:21.713Z,7
2022-10-04T08:34:28.421Z,5
2022-10-04T08:44:34.966Z,6
2022-10-04T08:54:42.015Z,4
2022-10-04T09:04:49.634Z,5
2022-10-04T09:14:54.919Z,6
2022-10-04T09:25:00.747Z,7
2022-10-04T09:35:12.459Z,8
2022-10-04T09:45:12.370Z,7
2022-10-04T09:55:26.362Z,6
2022-10-04T10:05:24.129Z,5
2022-10-04T10:15:30.515Z,5
2022-10-04T10:25:40.045Z,7
2022-10-04T10:35:41.152Z,5
2022-10-04T10:45:46.923Z,6
2022-10-04T10:55:53.018Z,6
2022-10-04T11:05:58.771Z,6
2022-10-04T11:16:05.161Z,8
2022-10-04T11:26:09.672Z,7
2022-10-04T11:36:14.933Z,6
2022-10-04T11:46:20.494Z,6
2022-10-04T11:56:25.915Z,6
2022-10-04T12:06:31.324Z,7
2022-10-04T12:16:38.549Z,5
2022-10-04T12:26:49.625Z,6
2022-10-04T12:36:51.267Z,10
2022-10-04T12:46:57.647Z,6
2022-10-04T12:57:03.053Z,6
2022-10-04T13:07:14.025Z,6
2022-10-04T13:18:34.891Z,6
2022-10-04T13:28:42.484Z,7
2022-10-04T13:38:49.108Z,7
2022-10-04T13:49:03.803Z,6
2022-10-04T13:58:59.305Z,6
2022-10-04T14:09:03.328Z,5
2022-10-04T14:19:14.509Z,5
2022-10-04T14:29:16.182Z,4
2022-10-04T14:39:23.038Z,6
2022-10-04T14:49:29.708Z,6
2022-10-04T14:59:34.427Z,5
2022-10-04T15:09:38.649Z,6
2022-10-04T15:20:12.062Z,7
2022-10-04T15:30:19.298Z,6
2022-10-04T15:40:29.285Z,7
2022-10-04T15:50:30.273Z,7
2022-10-04T16:00:37.823Z,6
2022-10-04T16:10:43.624Z,10
2022-10-04T16:20:51.507Z,10
2022-10-04T16:31:20.478Z,7
2022-10-04T16:41:15.373Z,15
2022-10-04T16:51:20.767Z,8
2022-10-04T17:01:27.516Z,7
2022-10-04T17:11:31.239Z,7
2022-10-04T17:21:36.119Z,8
2022-10-04T17:31:43.517Z,8
2022-10-04T17:41:48.995Z,5
2022-10-04T17:51:55.088Z,8
2022-10-04T18:02:00.139Z,6
2022-10-04T18:12:04.875Z,9
2022-10-04T18:22:10.524Z,5
2022-10-04T18:32:16.230Z,9
2022-10-04T18:42:22.091Z,5
2022-10-04T18:52:25.662Z,7
2022-10-04T19:02:35.567Z,7
2022-10-04T19:12:36.720Z,5
2022-10-04T19:22:43.768Z,7
2022-10-04T19:32:51.004Z,6
2022-10-04T19:42:57.442Z,5
2022-10-04T19:53:02.814Z,5
2022-10-04T20:03:09.288Z,7
2022-10-04T20:13:13.449Z,7
2022-10-04T20:23:20.202Z,10
2022-10-04T20:33:30.291Z,8
2022-10-04T20:43:31.149Z,13
2022-10-04T20:53:36.652Z,5
2022-10-04T21:03:42.641Z,5
2022-10-04T21:13:48.849Z,7
2022-10-04T21:23:54.977Z,5
2022-10-04T21:34:02.275Z,6
2022-10-04T21:44:06.802Z,6
2022-10-04T21:54:12.768Z,5
2022-10-04T22:04:18.378Z,5
2022-10-04T22:14:23.642Z,7
2022-10-04T22:24:30.452Z,7
2022-10-04T22:34:37.250Z,5
2022-10-04T22:44:41.424Z,5
2022-10-04T22:54:46.839Z,5
2022-10-04T23:04:51.098Z,4
2022-10-04T23:14:56.704Z,4
2022-10-04T23:25:04.435Z,6
2022-10-04T23:35:10.613Z,5
2022-10-04T23:45:16.926Z,6
2022-10-04T23:55:24.248Z,6
